Time;durP1;ratioP1;P1;durP2;ratioP2;P2;SDS_P1;SDS_P2;PMS_P1;PMS_P2;Temp;Humidity;BMP_temperature;BMP_pressure;BME280_temperature;BME280_humidity;BME280_pressure;Samples;Min_cycle;Max_cycle;Signal;HPM_P1;HPM_P2
2022/04/24 00:02:11;;;;;;;45.38;27.13;;;;;;;9.95;80.38;94368.63;5064818;28;20044;-78
2022/04/24 00:04:38;;;;;;;47.55;28.40;;;;;;;9.93;80.52;94349.97;5067879;28;20052;-76
2022/04/24 00:07:07;;;;;;;50.63;27.95;;;;;;;9.83;80.95;94338.91;5072321;28;20048;-77
2022/04/24 00:09:35;;;;;;;52.38;28.02;;;;;;;9.75;81.10;94321.69;5069325;28;20545;-76
2022/04/24 00:12:02;;;;;;;71.93;27.65;;;;;;;9.72;81.26;94329.81;5065890;28;20052;-77
2022/04/24 00:14:28;;;;;;;73.78;26.27;;;;;;;9.68;81.70;94314.19;5065711;28;20479;-78
2022/04/24 00:16:55;;;;;;;91.70;28.35;;;;;;;9.73;81.50;94315.06;5063935;28;20052;-76
2022/04/24 00:19:21;;;;;;;82.40;27.90;;;;;;;9.72;81.83;94321.66;5064071;28;20049;-77
2022/04/24 00:21:48;;;;;;;76.95;28.30;;;;;;;9.65;81.77;94317.63;5064301;28;20052;-77
2022/04/24 00:24:17;;;;;;;76.05;29.17;;;;;;;9.66;82.18;94315.72;5063705;28;20053;-77
2022/04/24 00:26:43;;;;;;;88.30;27.90;;;;;;;9.72;81.85;94316.22;5063858;28;20048;-77
2022/04/24 00:29:10;;;;;;;98.82;28.88;;;;;;;9.74;81.83;94317.41;5066054;28;20060;-78
2022/04/24 00:31:36;;;;;;;81.93;27.13;;;;;;;9.77;81.36;94316.69;5068005;28;20055;-78
2022/04/24 00:34:03;;;;;;;75.15;26.85;;;;;;;9.80;81.37;94315.94;5066965;28;20051;-77
2022/04/24 00:36:29;;;;;;;65.15;28.92;;;;;;;9.75;81.60;94315.47;5068715;28;20051;-77
2022/04/24 00:38:56;;;;;;;55.03;28.05;;;;;;;9.78;81.54;94306.59;5067790;28;20048;-77
2022/04/24 00:41:24;;;;;;;87.30;25.33;;;;;;;9.78;81.50;94315.53;5065277;28;20056;-76
2022/04/24 00:43:52;;;;;;;84.15;24.92;;;;;;;9.77;81.58;94318.63;5067186;28;20056;-76
2022/04/24 00:46:32;;;;;;;96.90;27.85;;;;;;;9.75;81.75;94304.59;5067107;28;20581;-77
2022/04/24 00:48:59;;;;;;;70.47;24.27;;;;;;;9.71;82.17;94311.91;5067766;28;20048;-77
2022/04/24 00:51:26;;;;;;;99.80;27.27;;;;;;;9.74;82.05;94303.03;5066704;28;20059;-77
2022/04/24 00:53:53;;;;;;;77.75;27.45;;;;;;;9.74;82.13;94303.81;5067956;28;20048;-77
2022/04/24 00:56:20;;;;;;;78.88;27.85;;;;;;;9.72;82.50;94299.91;5066257;28;20051;-77
2022/04/24 00:58:48;;;;;;;83.60;27.95;;;;;;;9.73;82.20;94312.34;5068092;28;20072;-76
2022/04/24 01:01:14;;;;;;;85.28;28.17;;;;;;;9.68;82.81;94303.34;5065956;28;20443;-77
2022/04/24 01:03:41;;;;;;;78.20;27.00;;;;;;;9.73;82.43;94317.78;5067921;28;20048;-77
2022/04/24 01:06:08;;;;;;;90.18;27.08;;;;;;;9.75;82.46;94310.03;5066090;28;20049;-77
2022/04/24 01:08:35;;;;;;;72.82;27.08;;;;;;;9.75;82.09;94299.16;5067662;28;20065;-77
2022/04/24 01:11:01;;;;;;;49.55;27.90;;;;;;;9.76;82.41;94298.81;5066253;28;20044;-76
2022/04/24 01:13:28;;;;;;;104.20;27.42;;;;;;;9.75;82.28;94274.69;5065642;28;20047;-76
2022/04/24 01:15:58;;;;;;;87.68;27.65;;;;;;;9.73;82.44;94263.41;5067560;28;20655;-79
2022/04/24 01:18:26;;;;;;;89.43;27.10;;;;;;;9.75;82.48;94250.25;5066110;28;20048;-76
2022/04/24 01:20:54;;;;;;;83.70;27.83;;;;;;;9.72;82.01;94261.84;5067455;28;20053;-77
2022/04/24 01:23:20;;;;;;;86.47;28.38;;;;;;;9.71;82.23;94263.78;5065834;28;20059;-77
2022/04/24 01:25:47;;;;;;;74.20;28.17;;;;;;;9.76;82.44;94224.63;5067232;28;20048;-77
2022/04/24 01:28:13;;;;;;;107.93;26.77;;;;;;;9.81;81.95;94227.81;5065564;28;20059;-76
2022/04/24 01:30:40;;;;;;;82.20;26.20;;;;;;;9.81;81.85;94237.91;5067401;28;20058;-77
2022/04/24 01:33:06;;;;;;;92.82;26.50;;;;;;;9.81;82.03;94224.31;5065852;28;20055;-77
2022/04/24 01:35:33;;;;;;;81.43;27.50;;;;;;;9.86;81.88;94232.16;5066517;28;20632;-77
2022/04/24 01:38:01;;;;;;;140.70;86.32;;;;;;;9.90;81.54;94241.94;5066519;28;20056;-76
2022/04/24 01:40:28;;;;;;;154.85;101.55;;;;;;;9.91;81.09;94245.44;5065148;28;20133;-77
2022/04/24 01:42:54;;;;;;;110.90;40.28;;;;;;;9.92;81.05;94236.16;5064591;28;20052;-77
2022/04/24 01:45:21;;;;;;;157.05;79.93;;;;;;;9.92;81.14;94239.66;5065688;28;20090;-77
2022/04/24 01:47:47;;;;;;;106.25;35.20;;;;;;;9.92;81.33;94238.88;5066477;28;20519;-77
2022/04/24 01:50:14;;;;;;;96.25;27.77;;;;;;;9.91;80.89;94237.28;5065043;28;20063;-77
2022/04/24 01:52:40;;;;;;;113.60;28.20;;;;;;;9.89;81.03;94228.72;5066560;28;20467;-77
2022/04/24 01:55:09;;;;;;;115.53;52.13;;;;;;;9.91;81.13;94243.50;5065266;28;20057;-78
2022/04/24 01:57:35;;;;;;;156.65;77.82;;;;;;;9.87;81.07;94237.25;5066752;28;20139;-77
2022/04/24 02:00:02;;;;;;;99.68;27.15;;;;;;;9.90;81.02;94236.50;5065770;28;20049;-79
2022/04/24 02:02:28;;;;;;;414.85;236.90;;;;;;;9.89;81.30;94231.44;5067760;28;20511;-77
2022/04/24 02:04:55;;;;;;;56.10;26.98;;;;;;;9.80;81.14;94217.31;5070140;28;20055;-77
2022/04/24 02:07:21;;;;;;;98.10;35.08;;;;;;;9.76;81.64;94241.75;5073809;28;20056;-76
2022/04/24 02:09:48;;;;;;;95.63;27.25;;;;;;;9.74;81.97;94237.81;5067768;28;20052;-76
2022/04/24 02:12:16;;;;;;;172.23;92.88;;;;;;;9.75;81.98;94223.06;5063756;28;20056;-77
2022/04/24 02:14:42;;;;;;;135.25;41.45;;;;;;;9.77;81.96;94221.56;5066393;28;20623;-76
2022/04/24 02:17:09;;;;;;;128.88;46.78;;;;;;;9.73;81.78;94217.22;5064290;28;20044;-77
2022/04/24 02:19:35;;;;;;;99.68;28.13;;;;;;;9.79;81.91;94232.06;5065972;28;20052;-77
2022/04/24 02:22:02;;;;;;;539.10;258.27;;;;;;;9.82;81.78;94223.97;5064661;28;20511;-78
2022/04/24 02:24:28;;;;;;;247.50;121.35;;;;;;;9.83;81.50;94213.88;5065735;28;20052;-76
2022/04/24 02:26:55;;;;;;;97.93;30.42;;;;;;;9.87;81.32;94214.72;5065968;28;20048;-77
2022/04/24 02:29:25;;;;;;;110.97;30.38;;;;;;;9.86;81.60;94224.78;5065006;28;20169;-77
2022/04/24 02:31:52;;;;;;;125.80;37.65;;;;;;;9.91;81.21;94212.81;5065426;28;20135;-76
2022/04/24 02:34:18;;;;;;;313.35;162.05;;;;;;;9.94;80.90;94198.50;5064229;28;20047;-78
2022/04/24 02:36:45;;;;;;;526.92;269.58;;;;;;;9.91;80.90;94218.25;5065530;28;20049;-77
2022/04/24 02:39:11;;;;;;;146.07;45.38;;;;;;;9.82;81.31;94212.31;5064508;28;20105;-77
2022/04/24 02:41:38;;;;;;;112.72;25.88;;;;;;;9.85;81.52;94195.25;5063629;28;20051;-76
2022/04/24 02:44:05;;;;;;;107.15;36.67;;;;;;;9.81;81.28;94211.50;5064486;28;20064;-77
2022/04/24 02:46:33;;;;;;;323.45;160.48;;;;;;;9.75;81.89;94212.19;5065875;28;20056;-77
2022/04/24 02:48:59;;;;;;;133.43;56.97;;;;;;;9.71;82.06;94217.59;5065383;28;20052;-77
2022/04/24 02:51:26;;;;;;;129.68;36.67;;;;;;;9.71;82.26;94205.91;5064269;28;20691;-78
2022/04/24 02:53:52;;;;;;;105.03;27.67;;;;;;;9.65;82.36;94206.22;5065371;28;20064;-77
2022/04/24 02:56:19;;;;;;;151.82;29.88;;;;;;;9.62;82.26;94219.75;5064516;28;20048;-78
2022/04/24 02:58:45;;;;;;;103.90;30.90;;;;;;;9.66;82.28;94207.03;5065430;28;20048;-77
2022/04/24 03:01:12;;;;;;;126.38;29.52;;;;;;;9.68;81.98;94243.53;5064040;28;20064;-77
2022/04/24 03:03:42;;;;;;;97.65;25.77;;;;;;;9.75;81.79;94232.00;5065473;28;20068;-77
2022/04/24 03:06:10;;;;;;;150.55;43.85;;;;;;;9.82;81.46;94234.06;5063474;28;20049;-77
2022/04/24 03:08:37;;;;;;;124.97;38.80;;;;;;;9.88;81.34;94241.53;5065322;28;20064;-76
2022/04/24 03:11:04;;;;;;;103.70;26.70;;;;;;;9.88;80.95;94243.47;5063211;28;20048;-77
2022/04/24 03:13:30;;;;;;;98.32;29.63;;;;;;;9.88;81.19;94238.03;5064768;28;20049;-76
2022/04/24 03:15:57;;;;;;;95.22;27.00;;;;;;;9.85;81.28;94228.66;5064822;28;20075;-78
2022/04/24 03:18:24;;;;;;;93.13;27.10;;;;;;;9.89;81.21;94242.31;5064133;28;20056;-77
2022/04/24 03:20:52;;;;;;;99.05;27.08;;;;;;;9.87;80.94;94236.47;5064950;28;20049;-77
2022/04/24 03:23:18;;;;;;;155.52;43.58;;;;;;;9.88;80.74;94243.47;5064144;28;20051;-77
2022/04/24 03:25:45;;;;;;;95.97;26.50;;;;;;;9.87;81.01;94231.03;5065540;28;20114;-77
2022/04/24 03:28:11;;;;;;;107.13;26.40;;;;;;;9.83;80.68;94238.34;5064006;28;20491;-77
2022/04/24 03:30:38;;;;;;;94.43;26.45;;;;;;;9.79;81.06;94227.41;5064884;28;20049;-77
2022/04/24 03:33:07;;;;;;;82.47;25.25;;;;;;;9.84;80.87;94223.59;5063881;28;20355;-77
2022/04/24 03:35:34;;;;;;;113.53;27.77;;;;;;;9.88;80.76;94227.94;5064941;28;20056;-77
2022/04/24 03:38:02;;;;;;;111.80;28.05;;;;;;;9.91;80.74;94226.41;5064577;28;20059;-77
2022/04/24 03:40:31;;;;;;;101.88;26.60;;;;;;;9.94;80.54;94222.97;5061809;28;20053;-77
2022/04/24 03:42:58;;;;;;;187.73;123.22;;;;;;;9.94;80.37;94220.25;5064671;28;20052;-78
2022/04/24 03:45:25;;;;;;;99.15;27.00;;;;;;;9.94;80.41;94225.69;5062909;28;20048;-77
2022/04/24 03:47:52;;;;;;;99.78;27.85;;;;;;;9.96;80.31;94220.66;5059448;28;20051;-78
2022/04/24 03:50:20;;;;;;;163.23;55.45;;;;;;;9.99;80.36;94228.09;5063614;28;20068;-76
2022/04/24 03:52:46;;;;;;;90.55;25.02;;;;;;;10.02;79.87;94226.56;5065206;28;20045;-78
2022/04/24 03:55:15;;;;;;;574.28;262.23;;;;;;;10.03;80.06;94244.47;5063579;28;20060;-77
2022/04/24 03:57:41;;;;;;;626.80;266.42;;;;;;;10.00;79.71;94300.38;5064793;28;20052;-77
2022/04/24 04:00:08;;;;;;;626.83;270.08;;;;;;;9.28;83.65;94373.59;5063796;28;20059;-77
2022/04/24 04:02:42;;;;;;;623.50;264.95;;;;;;;9.40;83.54;94338.94;5065536;28;20393;-76
2022/04/24 04:05:09;;;;;;;515.65;254.68;;;;;;;9.47;83.43;94343.72;5070381;28;20052;-77
2022/04/24 04:07:35;;;;;;;614.00;246.75;;;;;;;9.56;82.71;94335.34;5069767;28;20048;-76
2022/04/24 04:10:02;;;;;;;165.68;62.38;;;;;;;9.62;82.65;94318.38;5069618;28;20052;-77
2022/04/24 04:12:30;;;;;;;109.32;37.75;;;;;;;9.73;82.20;94325.94;5068085;28;20051;-77
2022/04/24 04:14:56;;;;;;;265.00;99.57;;;;;;;9.80;82.13;94326.81;5068875;28;20049;-77
2022/04/24 04:17:23;;;;;;;94.40;32.97;;;;;;;9.86;81.63;94317.22;5061343;28;20110;-77
2022/04/24 04:19:49;;;;;;;622.97;272.88;;;;;;;9.93;81.26;94324.72;5068771;28;20064;-77
2022/04/24 04:22:15;;;;;;;616.15;277.30;;;;;;;9.99;81.08;94320.56;5067333;28;20056;-76
2022/04/24 04:24:44;;;;;;;572.08;265.60;;;;;;;10.06;81.01;94330.75;5068031;28;20056;-77
2022/04/24 04:27:11;;;;;;;637.15;286.52;;;;;;;10.11;80.32;94328.50;5067432;28;20064;-78
2022/04/24 04:29:39;;;;;;;644.28;284.15;;;;;;;10.16;79.84;94332.84;5068237;28;20071;-78
2022/04/24 04:32:06;;;;;;;605.17;267.60;;;;;;;10.18;79.89;94331.38;5067860;28;20377;-78
2022/04/24 04:34:32;;;;;;;614.28;260.65;;;;;;;10.23;79.64;94335.69;5067528;28;20538;-78
2022/04/24 04:36:59;;;;;;;429.13;189.25;;;;;;;10.25;79.28;94348.97;5068313;28;20527;-78
2022/04/24 04:39:25;;;;;;;75.22;26.27;;;;;;;10.24;79.37;94347.41;5067139;28;20056;-78
2022/04/24 04:41:52;;;;;;;614.25;276.85;;;;;;;10.17;79.29;94348.81;5068085;28;20181;-78
2022/04/24 04:44:18;;;;;;;627.47;280.73;;;;;;;10.20;79.33;94364.41;5067043;28;20049;-77
2022/04/24 04:46:46;;;;;;;630.88;290.25;;;;;;;10.19;79.27;94372.94;5059127;28;20091;-77
2022/04/24 04:49:13;;;;;;;604.60;277.25;;;;;;;10.19;79.41;94372.94;5048454;28;20049;-77
2022/04/24 04:51:39;;;;;;;605.30;268.08;;;;;;;10.17;79.64;94376.00;5048524;28;20052;-77
2022/04/24 04:54:06;;;;;;;612.15;274.25;;;;;;;10.19;79.50;94384.59;5048040;28;20053;-77
2022/04/24 04:56:32;;;;;;;456.00;194.32;;;;;;;9.93;80.25;94387.25;5048207;28;20708;-77
2022/04/24 04:58:59;;;;;;;599.60;272.50;;;;;;;9.88;80.42;94382.13;5051524;28;20499;-77
2022/04/24 05:01:25;;;;;;;618.65;277.48;;;;;;;9.92;80.47;94397.34;5049271;28;20057;-77
2022/04/24 05:03:53;;;;;;;610.38;259.92;;;;;;;9.90;80.67;94409.72;5050341;28;20053;-77
2022/04/24 05:06:21;;;;;;;619.85;277.55;;;;;;;9.80;80.72;94402.16;5048116;28;20060;-78
2022/04/24 05:08:48;;;;;;;614.50;270.00;;;;;;;9.81;80.90;94406.44;5049121;28;20140;-77
2022/04/24 05:11:14;;;;;;;620.05;266.77;;;;;;;9.84;81.15;94416.59;5046805;28;20060;-78
2022/04/24 05:13:40;;;;;;;629.35;274.70;;;;;;;9.67;81.48;94424.06;5047439;28;20052;-78
2022/04/24 05:16:07;;;;;;;615.28;266.13;;;;;;;9.72;81.42;94420.28;5047110;28;20041;-76
2022/04/24 05:18:34;;;;;;;612.25;255.48;;;;;;;9.73;81.44;94423.78;5045359;28;20523;-78
2022/04/24 05:21:02;;;;;;;614.78;293.15;;;;;;;9.76;81.43;94442.06;5047333;28;20045;-78
2022/04/24 05:23:28;;;;;;;615.30;249.82;;;;;;;9.47;82.56;94441.50;5046835;28;20132;-77
2022/04/24 05:25:55;;;;;;;457.90;183.77;;;;;;;9.28;83.87;94438.78;5048069;28;20060;-78
2022/04/24 05:28:21;;;;;;;607.35;247.32;;;;;;;9.45;83.54;94440.28;5047071;28;20055;-77
2022/04/24 05:30:48;;;;;;;616.22;254.43;;;;;;;9.38;84.02;94454.50;5048277;28;20056;-77
2022/04/24 05:33:18;;;;;;;616.05;251.68;;;;;;;9.27;84.25;94458.94;5046984;28;20050;-78
2022/04/24 05:35:45;;;;;;;614.58;251.85;;;;;;;9.31;84.33;94476.88;5047042;28;20099;-77
2022/04/24 05:38:13;;;;;;;620.30;250.43;;;;;;;9.03;85.66;94487.91;5046239;28;20111;-77
2022/04/24 05:40:40;;;;;;;616.92;249.10;;;;;;;8.88;86.97;94475.16;5046560;28;20571;-78
2022/04/24 05:43:07;;;;;;;623.65;286.45;;;;;;;9.04;86.62;94483.25;5046290;28;20052;-78
2022/04/24 05:45:34;;;;;;;630.70;274.33;;;;;;;9.07;86.94;94485.25;5046406;28;20405;-77
2022/04/24 05:48:00;;;;;;;634.15;281.60;;;;;;;9.22;86.58;94489.88;5039956;28;20053;-78
2022/04/24 05:50:27;;;;;;;630.47;287.80;;;;;;;9.08;86.55;94479.50;5045540;28;20056;-78
2022/04/24 05:52:54;;;;;;;622.88;275.15;;;;;;;8.84;87.37;94480.50;5047113;28;20045;-77
2022/04/24 05:55:23;;;;;;;633.53;301.77;;;;;;;9.06;86.92;94470.91;5045553;28;20072;-78
2022/04/24 05:57:50;;;;;;;648.15;311.75;;;;;;;9.14;87.00;94478.06;5046866;28;20068;-78
2022/04/24 06:00:17;;;;;;;645.15;298.02;;;;;;;9.21;86.29;94487.50;5045417;28;20052;-78
2022/04/24 06:02:44;;;;;;;619.03;265.65;;;;;;;9.33;86.54;94485.44;5047073;28;20053;-77
2022/04/24 06:05:11;;;;;;;618.35;262.02;;;;;;;9.43;85.73;94483.31;5047664;28;20054;-78
2022/04/24 06:07:38;;;;;;;645.95;326.25;;;;;;;9.55;85.51;94473.13;5047715;28;20069;-78
2022/04/24 06:10:05;;;;;;;619.88;258.00;;;;;;;9.51;85.01;94458.69;5046533;28;20119;-78
2022/04/24 06:12:33;;;;;;;620.78;279.50;;;;;;;9.44;85.16;94450.38;5045023;28;20041;-78
2022/04/24 06:15:04;;;;;;;604.72;257.30;;;;;;;9.43;85.06;94465.09;5046464;28;20127;-77
2022/04/24 06:17:30;;;;;;;646.67;315.85;;;;;;;9.48;85.57;94474.91;5039266;28;20133;-77
2022/04/24 06:19:57;;;;;;;615.80;266.23;;;;;;;9.61;85.02;94485.28;5046365;28;20048;-78
2022/04/24 06:22:23;;;;;;;609.67;252.75;;;;;;;9.51;84.79;94495.94;5045455;28;20052;-78
2022/04/24 06:24:50;;;;;;;610.83;255.63;;;;;;;9.52;84.87;94495.56;5046074;28;20053;-77
2022/04/24 06:27:16;;;;;;;624.80;291.83;;;;;;;9.54;85.10;94506.84;5045144;28;20700;-78
2022/04/24 06:29:44;;;;;;;657.60;341.52;;;;;;;9.52;85.79;94503.72;5045831;28;20056;-78
2022/04/24 06:32:11;;;;;;;621.85;286.67;;;;;;;9.59;85.62;94503.06;5045361;28;20049;-77
2022/04/24 06:34:37;;;;;;;618.72;263.00;;;;;;;9.82;85.92;94500.44;5045304;28;20056;-78
2022/04/24 06:37:04;;;;;;;621.50;294.10;;;;;;;10.05;85.48;94504.00;5045785;28;20056;-77
2022/04/24 06:39:31;;;;;;;621.13;305.13;;;;;;;10.16;83.81;94499.56;5045438;28;20065;-78
2022/04/24 06:41:57;;;;;;;597.85;276.50;;;;;;;10.18;83.82;94512.81;5046248;28;20663;-76
2022/04/24 06:44:25;;;;;;;605.90;286.75;;;;;;;10.28;82.91;94514.94;5045261;28;20052;-77
2022/04/24 06:46:53;;;;;;;630.53;328.45;;;;;;;10.53;83.08;94509.97;5045517;28;20053;-77
2022/04/24 06:49:19;;;;;;;611.03;300.60;;;;;;;10.84;83.74;94495.31;5046815;28;20053;-77
2022/04/24 06:51:46;;;;;;;557.15;275.25;;;;;;;10.64;79.66;94508.19;5045408;28;20467;-77
2022/04/24 06:54:12;;;;;;;603.63;298.33;;;;;;;10.82;78.75;94502.28;5045378;28;20051;-77
2022/04/24 06:56:38;;;;;;;604.05;289.15;;;;;;;10.98;78.89;94516.56;5045294;28;20045;-78
2022/04/24 06:59:05;;;;;;;599.97;267.92;;;;;;;10.96;78.15;94516.09;5045160;28;20053;-77
2022/04/24 07:01:31;;;;;;;600.35;278.23;;;;;;;11.28;79.20;94518.56;5044679;28;20411;-76
2022/04/24 07:03:59;;;;;;;608.40;338.77;;;;;;;11.21;76.06;94511.84;5045924;28;20052;-78
2022/04/24 07:06:26;;;;;;;600.72;284.88;;;;;;;11.54;77.06;94518.56;5044515;28;20053;-78
2022/04/24 07:08:52;;;;;;;595.70;312.83;;;;;;;11.84;74.40;94515.06;5045676;28;20048;-78
2022/04/24 07:11:19;;;;;;;398.88;212.48;;;;;;;12.01;73.78;94517.25;5044429;28;20072;-78
2022/04/24 07:13:46;;;;;;;606.92;327.95;;;;;;;12.17;72.45;94520.53;5045197;28;20096;-76
2022/04/24 07:16:12;;;;;;;618.72;374.85;;;;;;;12.39;71.14;94526.25;5039225;28;20049;-78
2022/04/24 07:18:39;;;;;;;605.67;311.63;;;;;;;12.39;70.95;94521.56;5045177;28;20043;-77
2022/04/24 07:21:07;;;;;;;608.17;327.35;;;;;;;12.51;70.34;94525.97;5045345;28;20045;-78
2022/04/24 07:23:35;;;;;;;635.25;459.30;;;;;;;12.62;69.36;94529.59;5044699;28;20068;-78
2022/04/24 07:26:02;;;;;;;619.05;403.92;;;;;;;12.52;68.60;94536.50;5045589;28;20116;-79
2022/04/24 07:28:30;;;;;;;548.17;185.60;;;;;;;12.58;68.30;94539.72;5044784;28;20384;-77
2022/04/24 07:30:57;;;;;;;568.08;243.70;;;;;;;12.64;67.31;94542.88;5045088;28;20055;-77
2022/04/24 07:33:23;;;;;;;544.85;207.98;;;;;;;12.86;68.56;94547.38;5044279;28;20047;-78
2022/04/24 07:35:50;;;;;;;642.60;408.10;;;;;;;12.76;66.51;94551.56;5045600;28;20049;-78
2022/04/24 07:38:17;;;;;;;640.67;402.25;;;;;;;12.70;67.49;94550.34;5043153;28;20049;-78
2022/04/24 07:40:44;;;;;;;650.13;420.42;;;;;;;12.94;67.39;94548.22;5044585;28;20049;-78
2022/04/24 07:43:12;;;;;;;629.28;413.27;;;;;;;12.88;66.75;94553.25;5044950;28;20041;-77
2022/04/24 07:45:43;;;;;;;643.85;419.05;;;;;;;12.84;66.73;94551.63;5044026;28;20538;-78
2022/04/24 07:48:10;;;;;;;643.28;420.77;;;;;;;13.19;65.79;94554.69;5062560;28;20051;-78
2022/04/24 07:50:39;;;;;;;632.65;430.50;;;;;;;13.05;65.12;94562.78;5064257;28;20060;-77
2022/04/24 07:53:07;;;;;;;637.15;435.98;;;;;;;13.05;66.70;94562.78;5064891;28;20059;-79
2022/04/24 07:55:35;;;;;;;636.92;466.02;;;;;;;13.20;65.67;94561.72;5064841;28;20048;-77
2022/04/24 07:58:02;;;;;;;712.72;509.70;;;;;;;13.53;63.17;94573.72;5065332;28;20071;-77
2022/04/24 08:00:30;;;;;;;620.95;439.67;;;;;;;14.04;64.45;94567.38;5065035;28;20040;-78
2022/04/24 08:02:57;;;;;;;651.35;514.63;;;;;;;14.72;63.53;94573.94;5065008;28;20614;-78
2022/04/24 08:05:28;;;;;;;632.10;454.55;;;;;;;15.39;61.61;94584.19;5066314;28;20056;-78
2022/04/24 08:07:56;;;;;;;647.95;498.10;;;;;;;15.28;56.55;94597.13;5069451;28;20044;-77
2022/04/24 08:10:25;;;;;;;639.35;437.55;;;;;;;15.44;57.32;94590.47;5070649;28;20060;-77
2022/04/24 08:12:53;;;;;;;592.03;349.27;;;;;;;14.58;57.02;94590.34;5064132;28;20055;-77
2022/04/24 08:15:19;;;;;;;680.13;541.28;;;;;;;14.48;59.82;94602.03;5064759;28;20415;-78
2022/04/24 08:17:46;;;;;;;636.63;453.45;;;;;;;14.49;59.69;94609.06;5063516;28;20048;-77
2022/04/24 08:20:15;;;;;;;643.35;391.10;;;;;;;14.26;60.28;94612.09;5064214;28;20059;-77
2022/04/24 08:22:43;;;;;;;585.42;321.65;;;;;;;14.03;60.25;94609.59;5064948;28;20052;-77
2022/04/24 08:25:10;;;;;;;644.20;471.90;;;;;;;13.83;59.66;94620.84;5064378;28;20055;-82
2022/04/24 08:27:38;;;;;;;607.40;378.67;;;;;;;13.62;63.17;94623.38;5064812;28;20411;-78
2022/04/24 08:30:08;;;;;;;620.97;432.05;;;;;;;14.38;62.41;94622.69;5063999;28;20048;-78
2022/04/24 08:32:36;;;;;;;626.22;445.45;;;;;;;14.48;59.77;94621.22;5064970;28;20071;-78
2022/04/24 08:35:04;;;;;;;534.95;210.23;;;;;;;14.17;60.61;94630.81;5064197;28;20088;-78
2022/04/24 08:37:31;;;;;;;510.35;169.88;;;;;;;14.02;62.47;94635.41;5065191;28;20056;-77
2022/04/24 08:39:57;;;;;;;552.20;225.35;;;;;;;13.80;62.88;94629.78;5064070;28;20045;-77
2022/04/24 08:42:24;;;;;;;567.22;237.10;;;;;;;13.44;63.56;94647.09;5064321;28;20063;-78
2022/04/24 08:44:51;;;;;;;514.55;165.98;;;;;;;13.26;64.28;94649.69;5064799;28;20541;-79
2022/04/24 08:47:20;;;;;;;513.90;146.93;;;;;;;13.03;65.46;94653.31;5063791;28;20075;-78
2022/04/24 08:49:47;;;;;;;524.42;166.90;;;;;;;13.02;65.60;94640.03;5066860;28;20052;-78
2022/04/24 08:52:15;;;;;;;503.10;129.45;;;;;;;13.03;66.04;94652.53;5066714;28;20049;-77
2022/04/24 08:54:42;;;;;;;354.40;92.55;;;;;;;13.02;64.89;94651.75;5068587;28;20094;-79
2022/04/24 08:57:09;;;;;;;356.25;101.30;;;;;;;13.05;66.11;94655.69;5066960;28;20467;-77
2022/04/24 08:59:37;;;;;;;67.32;38.00;;;;;;;13.02;64.95;94653.69;5069090;28;20045;-78
2022/04/24 09:02:04;;;;;;;31.70;14.57;;;;;;;12.98;64.81;94661.06;5067089;28;20742;-78
2022/04/24 09:04:33;;;;;;;52.00;22.33;;;;;;;12.88;65.11;94664.47;5068576;28;20041;-77
2022/04/24 09:07:02;;;;;;;54.53;26.70;;;;;;;12.80;66.40;94661.66;5068450;28;20546;-78
2022/04/24 09:09:29;;;;;;;51.28;17.75;;;;;;;12.77;67.38;94665.13;5069027;28;20506;-77
2022/04/24 09:12:07;;;;;;;54.67;19.95;;;;;;;12.84;66.78;94663.63;5070180;28;20055;-77
2022/04/24 09:14:34;;;;;;;67.00;22.17;;;;;;;12.84;65.07;94674.56;5069501;28;20045;-77
2022/04/24 09:17:05;;;;;;;36.35;13.38;;;;;;;12.80;65.82;94671.81;5070773;28;20461;-78
2022/04/24 09:19:34;;;;;;;65.30;25.42;;;;;;;12.87;66.77;94668.34;5067840;28;20055;-77
2022/04/24 09:22:06;;;;;;;45.45;22.38;;;;;;;12.97;66.63;94667.69;5068460;28;20049;-78
2022/04/24 09:24:44;;;;;;;52.40;23.95;;;;;;;13.00;64.83;94675.16;5067787;28;20094;-77
2022/04/24 09:27:11;;;;;;;65.68;23.67;;;;;;;13.38;66.73;94678.69;5067411;28;20800;-78
2022/04/24 09:29:39;;;;;;;53.33;23.92;;;;;;;13.64;64.59;94684.00;5067800;28;20507;-78
2022/04/24 09:32:10;;;;;;;54.72;18.33;;;;;;;14.01;62.31;94680.34;5067182;28;20102;-77
2022/04/24 09:34:39;;;;;;;56.10;18.40;;;;;;;13.86;61.48;94686.88;5068474;28;20048;-78
2022/04/24 09:37:09;;;;;;;65.30;18.10;;;;;;;14.01;60.75;94677.63;5066274;28;20052;-78
2022/04/24 09:39:38;;;;;;;41.85;12.07;;;;;;;14.20;60.95;94676.56;5058670;28;20048;-79
2022/04/24 09:42:09;;;;;;;58.72;18.23;;;;;;;14.26;60.83;94684.03;5065711;28;20641;-77
2022/04/24 09:44:39;;;;;;;37.08;10.77;;;;;;;14.27;60.06;94682.88;5068047;28;20052;-77
2022/04/24 09:47:06;;;;;;;58.00;18.02;;;;;;;14.21;59.01;94686.38;5066872;28;20045;-78
2022/04/24 09:49:36;;;;;;;77.80;36.85;;;;;;;14.28;59.85;94691.88;5056863;28;20057;-77
2022/04/24 09:52:10;;;;;;;60.90;18.27;;;;;;;14.15;58.19;94699.63;5065907;28;20075;-77
2022/04/24 09:54:39;;;;;;;65.03;22.08;;;;;;;13.98;59.83;94694.78;5067374;28;20514;-77
2022/04/24 09:57:08;;;;;;;51.33;14.68;;;;;;;13.98;60.23;94686.59;5067624;28;20071;-77
2022/04/24 09:59:35;;;;;;;37.60;13.35;;;;;;;14.03;61.09;94686.22;5067613;28;20048;-77
2022/04/24 10:02:04;;;;;;;41.10;12.20;;;;;;;13.95;60.53;94685.41;5067296;28;20139;-79
2022/04/24 10:04:31;;;;;;;39.83;11.63;;;;;;;13.86;59.95;94692.38;5069060;28;20041;-78
2022/04/24 10:06:58;;;;;;;52.95;14.73;;;;;;;13.71;60.81;94691.47;5070312;28;20053;-77
2022/04/24 10:09:33;;;;;;;34.15;9.57;;;;;;;13.64;63.17;94692.19;5049914;28;20560;-77
2022/04/24 10:12:04;;;;;;;48.85;13.38;;;;;;;13.72;61.13;94695.75;5066972;28;20056;-77
2022/04/24 10:14:32;;;;;;;33.75;10.88;;;;;;;13.54;60.80;94698.34;5068535;28;20052;-77
2022/04/24 10:17:16;;;;;;;43.45;13.25;;;;;;;13.36;59.68;94700.13;5067485;28;20070;-77
2022/04/24 10:20:16;;;;;;;32.53;9.63;;;;;;;13.47;60.63;94698.31;5069216;28;20041;-76
2022/04/24 10:22:46;;;;;;;30.48;10.27;;;;;;;13.43;61.20;94692.78;5062923;28;20047;-76
2022/04/24 10:25:15;;;;;;;42.70;12.98;;;;;;;13.41;61.15;94702.50;5088068;28;20044;-77
2022/04/24 10:27:43;;;;;;;30.67;9.82;;;;;;;13.46;61.26;94702.16;5088692;28;20079;-78
2022/04/24 10:30:14;;;;;;;54.63;14.23;;;;;;;13.42;61.77;94695.91;5085480;28;20051;-76
2022/04/24 10:32:41;;;;;;;43.63;12.45;;;;;;;13.44;59.94;94701.78;5087226;28;20047;-78
2022/04/24 10:35:16;;;;;;;49.58;13.25;;;;;;;13.48;60.85;94694.41;5085673;28;20142;-76
2022/04/24 10:37:43;;;;;;;44.42;12.80;;;;;;;13.65;58.84;94693.75;5086999;28;20052;-76
2022/04/24 10:40:15;;;;;;;43.65;12.90;;;;;;;13.84;57.37;94685.31;5085853;28;20188;-77
2022/04/24 10:42:43;;;;;;;42.13;12.27;;;;;;;14.00;57.38;94682.31;5086069;28;20060;-77
2022/04/24 10:45:14;;;;;;;43.05;12.77;;;;;;;14.17;56.90;94675.38;5085913;28;20098;-78
2022/04/24 10:47:55;;;;;;;35.67;11.10;;;;;;;14.36;54.75;94671.59;5073065;28;20428;-78
2022/04/24 10:50:22;;;;;;;39.95;11.98;;;;;;;14.48;54.87;94684.97;5068827;28;20133;-77
2022/04/24 10:52:53;;;;;;;42.50;13.43;;;;;;;14.44;54.61;94680.63;5065521;28;20054;-77
2022/04/24 10:55:26;;;;;;;42.20;14.35;;;;;;;14.42;54.62;94685.69;5066251;28;20048;-77
2022/04/24 10:58:00;;;;;;;36.75;11.95;;;;;;;14.32;54.88;94677.03;5066379;28;20137;-77
2022/04/24 11:00:32;;;;;;;40.95;13.55;;;;;;;14.22;53.97;94669.53;5065479;28;20044;-77
2022/04/24 11:03:07;;;;;;;29.27;11.32;;;;;;;14.21;53.91;94681.66;5066085;28;20060;-76
2022/04/24 11:05:37;;;;;;;36.40;11.32;;;;;;;14.17;54.71;94678.13;5064993;28;20040;-76
2022/04/24 11:08:05;;;;;;;38.03;12.05;;;;;;;14.07;55.54;94682.34;5065270;28;20710;-77
2022/04/24 11:10:39;;;;;;;37.22;12.57;;;;;;;14.17;54.84;94683.59;5065184;28;20809;-77
2022/04/24 11:13:09;;;;;;;41.28;12.02;;;;;;;14.12;54.14;94689.44;5065286;28;20102;-77
2022/04/24 11:15:40;;;;;;;33.58;10.88;;;;;;;13.96;53.97;94689.72;5065412;28;20048;-77
2022/04/24 11:18:07;;;;;;;54.58;16.83;;;;;;;13.92;53.42;94699.06;5060504;28;20048;-76